Aviation Digital Data Service (ADDS)

Output produced by METARs form (1959 UTC 31 January 2023)
found at http://www.aviationweather.gov/metar/data/
 
VTCT 311900Z 27003KT 8000 NSC 17/17 Q1012 NOSIG
VTCT 311800Z 24003KT 6000 NSC 17/17 Q1013 NOSIG
VTCT 311700Z 23005KT 8000 NSC 18/17 Q1012 NOSIG
VTCT 311600Z 23004KT 7000 NSC 19/16 Q1012 NOSIG
VTCT 311500Z 22003KT 8000 NSC 19/16 Q1012 NOSIG
VTCT 311400Z 23003KT 9000 NSC 20/18 Q1011 NOSIG
VTCT 311300Z 00000KT 8000 NSC 21/16 Q1011 NOSIG
VTCT 311200Z 20001KT CAVOK 22/16 Q1010 NOSIG
VTCT 311100Z 16003KT 9000 NSC 27/15 Q1009 NOSIG
VTCT 311000Z VRB02KT CAVOK 28/15 Q1009 NOSIG
VTCT 310900Z 10003KT 060V180 CAVOK 28/15 Q1010 NOSIG
VTCT 310800Z VRB04KT CAVOK 28/14 Q1010 NOSIG
VTCT 310700Z 17005KT 130V210 CAVOK 26/13 Q1011 NOSIG
VTCT 310600Z 16004KT 110V240 9000 NSC 25/14 Q1013 NOSIG
VTCT 310500Z VRB03KT CAVOK 23/14 Q1015 NOSIG
VTCT 310400Z VRB03KT 9000 NSC 21/15 Q1016 NOSIG
VTCT 310300Z 12003KT 060V150 7000 NSC 18/14 Q1017 NOSIG
VTCT 310200Z 00000KT 7000 NSC 17/14 Q1017 NOSIG
VTCT 310100Z 00000KT 6000 NSC 13/13 Q1016 NOSIG
VTCT 310000Z 00000KT 5000 BR BCFG NSC 12/12 Q1016 NOSIG
VTCT 302300Z 00000KT 7000 NSC 12/12 Q1015 NOSIG
VTCT 302200Z 00000KT 5000 BR BCFG NSC 13/13 Q1015 NOSIG
VTCT 302100Z 00000KT 5000 BR NSC 13/13 Q1014 NOSIG
VTCT 302000Z 32002KT CAVOK 13/13 Q1015 NOSIG
VTCT 301900Z 00000KT CAVOK 14/14 Q1015 NOSIG
TAF VTCT 311700Z 3118/0124 23005KT 8000 FEW025 
     BECMG 3122/3124 00000KT 4000 BR 
     BECMG 0101/0103 15005KT 9999 NSW 
     BECMG 0110/0112 26005KT 
     BECMG 0116/0118 35005KT